Aviation Digital Data Service (ADDS)

Output produced by METARs form (2105 UTC 21 September 2021)
found at http://www.aviationweather.gov/metar/data/
 
MUHA 211700Z 2118/2218 03010KT 9000 FEW025CB SCT030 
     TEMPO 2120/2200 VRB10KT 5000 SHRA FEW020CB BKN030 
     BECMG 2202/2204 VRB03KT